createdAt,value
2023-03-20T00:02:00.336Z,5.50
2023-03-20T00:04:27.668Z,5.50
2023-03-20T00:06:54.843Z,5.50
2023-03-20T00:09:22.072Z,5.50
2023-03-20T00:11:51.639Z,5.50
2023-03-20T00:14:22.653Z,5.50
2023-03-20T00:16:51.216Z,5.50
2023-03-20T00:19:23.548Z,5.50
2023-03-20T00:21:52.257Z,5.50
2023-03-20T00:24:20.043Z,5.50
2023-03-20T00:26:48.927Z,5.50
2023-03-20T00:29:26.297Z,5.50
2023-03-20T00:31:54.330Z,5.50
2023-03-20T00:34:23.985Z,5.50
2023-03-20T00:36:52.008Z,5.50
2023-03-20T00:39:19.264Z,5.40
2023-03-20T00:41:50.624Z,5.50
2023-03-20T00:44:26.156Z,5.50
2023-03-20T00:46:59.729Z,5.50
2023-03-20T00:49:29.859Z,5.50
2023-03-20T00:51:57.201Z,5.50
2023-03-20T00:54:24.599Z,5.50
2023-03-20T00:57:06.909Z,5.50
2023-03-20T00:59:38.125Z,5.50
2023-03-20T01:02:05.593Z,5.50
2023-03-20T01:04:39.221Z,5.50
2023-03-20T01:07:08.069Z,5.50
2023-03-20T01:09:35.192Z,5.50
2023-03-20T01:12:03.280Z,5.50
2023-03-20T01:14:30.803Z,5.50
2023-03-20T01:16:57.703Z,5.50
2023-03-20T01:19:24.887Z,5.40
2023-03-20T01:21:51.938Z,5.50
2023-03-20T01:24:18.957Z,5.50
2023-03-20T01:26:47.027Z,5.60
2023-03-20T01:29:20.541Z,5.60
2023-03-20T01:31:48.182Z,5.60
2023-03-20T01:34:16.750Z,5.60
2023-03-20T01:36:50.654Z,5.60
2023-03-20T01:39:19.290Z,5.60
2023-03-20T01:41:47.251Z,5.60
2023-03-20T01:44:23.917Z,5.60
2023-03-20T01:46:53.874Z,5.60
2023-03-20T01:49:20.756Z,5.50
2023-03-20T01:51:52.070Z,5.50
2023-03-20T01:54:37.722Z,5.50
2023-03-20T01:57:18.813Z,5.50
2023-03-20T01:59:51.842Z,5.40
2023-03-20T02:02:26.242Z,5.40
2023-03-20T02:04:59.889Z,5.40
2023-03-20T02:07:27.010Z,5.40
2023-03-20T02:09:54.070Z,5.30
2023-03-20T02:12:22.796Z,5.40
2023-03-20T02:14:50.820Z,5.40
2023-03-20T02:17:17.988Z,5.30
2023-03-20T02:20:34.498Z,5.30
2023-03-20T02:23:04.337Z,5.30
2023-03-20T02:25:37.832Z,5.30
2023-03-20T02:28:24.575Z,5.30
2023-03-20T02:31:15.509Z,5.20
2023-03-20T02:34:26.432Z,5.30
2023-03-20T02:36:56.361Z,5.30
2023-03-20T02:39:26.593Z,5.20
2023-03-20T02:41:56.241Z,5.30
2023-03-20T02:44:26.226Z,5.30
2023-03-20T02:47:11.458Z,5.30
2023-03-20T02:50:02.863Z,5.20
2023-03-20T02:52:51.566Z,5.20
2023-03-20T02:55:34.453Z,5.20
2023-03-20T02:58:26.765Z,5.20
2023-03-20T03:01:11.789Z,5.20
2023-03-20T03:03:53.822Z,5.30
2023-03-20T03:06:34.756Z,5.30
2023-03-20T03:09:07.397Z,5.40
2023-03-20T03:11:38.125Z,5.30
2023-03-20T03:14:06.658Z,5.30
2023-03-20T03:16:37.194Z,5.20
2023-03-20T03:19:09.873Z,5.20
2023-03-20T03:21:39.452Z,5.20
2023-03-20T03:24:21.750Z,5.10
2023-03-20T03:26:53.925Z,5.10
2023-03-20T03:29:24.765Z,5.00
2023-03-20T03:31:52.859Z,5.00
2023-03-20T03:34:22.244Z,5.00
2023-03-20T03:37:11.362Z,5.00
2023-03-20T03:40:00.509Z,5.00
2023-03-20T03:42:35.832Z,5.00
2023-03-20T03:45:07.006Z,5.00
2023-03-20T03:47:43.501Z,5.00
2023-03-20T03:50:19.058Z,5.00
2023-03-20T03:52:49.582Z,5.00
2023-03-20T03:55:22.251Z,5.00
2023-03-20T03:57:57.802Z,5.00
2023-03-20T04:00:27.652Z,4.90
2023-03-20T04:02:58.148Z,4.80
2023-03-20T04:05:31.838Z,4.80
2023-03-20T04:08:01.442Z,4.70
2023-03-20T04:10:28.337Z,4.70
2023-03-20T04:12:55.435Z,4.70
2023-03-20T04:15:22.583Z,4.80
2023-03-20T04:17:49.496Z,4.80
2023-03-20T04:20:16.830Z,4.90
2023-03-20T04:22:43.953Z,4.90
2023-03-20T04:25:23.277Z,4.80
2023-03-20T04:27:50.648Z,4.70
2023-03-20T04:30:18.050Z,4.60
2023-03-20T04:32:45.230Z,4.50
2023-03-20T04:35:12.382Z,4.50
2023-03-20T04:37:39.523Z,4.60
2023-03-20T04:40:07.075Z,4.70
2023-03-20T04:42:34.070Z,4.70
2023-03-20T04:45:01.365Z,4.70
2023-03-20T04:47:28.304Z,4.80
2023-03-20T04:49:55.246Z,4.80
2023-03-20T04:52:22.150Z,4.80
2023-03-20T04:54:49.271Z,4.80
2023-03-20T04:57:16.886Z,4.80
2023-03-20T04:59:43.806Z,4.80
2023-03-20T05:02:14.995Z,4.80
2023-03-20T05:04:45.390Z,4.80
2023-03-20T05:07:12.571Z,4.80
2023-03-20T05:09:39.519Z,4.80
2023-03-20T05:12:07.228Z,4.80
2023-03-20T05:14:34.150Z,4.70
2023-03-20T05:17:01.405Z,4.70
2023-03-20T05:19:28.422Z,4.70
2023-03-20T05:21:55.830Z,4.80
2023-03-20T05:24:23.379Z,4.80
2023-03-20T05:26:50.486Z,4.70
2023-03-20T05:29:17.400Z,4.60
2023-03-20T05:31:44.338Z,4.50
2023-03-20T05:34:11.314Z,4.60
2023-03-20T05:36:38.380Z,4.60
2023-03-20T05:39:06.380Z,4.60
2023-03-20T05:41:33.727Z,4.60
2023-03-20T05:44:00.886Z,4.60
2023-03-20T05:46:28.036Z,4.60
2023-03-20T05:48:55.123Z,4.60
2023-03-20T05:51:22.261Z,4.60
2023-03-20T05:53:49.224Z,4.60
2023-03-20T05:56:16.249Z,4.60
2023-03-20T05:58:43.285Z,4.60
2023-03-20T06:01:10.222Z,4.60
2023-03-20T06:03:37.222Z,4.60
2023-03-20T06:06:04.833Z,4.50
2023-03-20T06:08:31.820Z,4.40
2023-03-20T06:10:58.737Z,4.50
2023-03-20T06:13:25.976Z,4.60
2023-03-20T06:15:52.954Z,4.60
2023-03-20T06:18:20.043Z,4.60
2023-03-20T06:20:47.010Z,4.60
2023-03-20T06:23:14.126Z,4.60
2023-03-20T06:25:41.198Z,4.50
2023-03-20T06:28:08.509Z,4.40
2023-03-20T06:30:35.834Z,4.40
2023-03-20T06:33:03.058Z,4.30
2023-03-20T06:35:31.787Z,4.30
2023-03-20T06:37:59.099Z,4.30
2023-03-20T06:40:27.423Z,4.30
2023-03-20T06:42:54.878Z,4.20
2023-03-20T06:45:22.436Z,4.20
2023-03-20T06:47:49.476Z,4.30
2023-03-20T06:50:16.736Z,4.30
2023-03-20T06:52:45.081Z,4.30
2023-03-20T06:55:12.280Z,4.30
2023-03-20T06:57:39.490Z,4.30
2023-03-20T07:00:08.163Z,4.30
2023-03-20T07:02:35.144Z,4.30
2023-03-20T07:05:02.486Z,4.30
2023-03-20T07:07:29.513Z,4.20
2023-03-20T07:09:56.647Z,4.20
2023-03-20T07:12:28.477Z,4.20
2023-03-20T07:14:56.208Z,4.10
2023-03-20T07:17:23.691Z,4.20
2023-03-20T07:19:50.641Z,4.30
2023-03-20T07:22:26.167Z,4.30
2023-03-20T07:24:53.494Z,4.30
2023-03-20T07:27:21.615Z,4.30
2023-03-20T07:29:48.548Z,4.40
2023-03-20T07:32:16.689Z,4.40
2023-03-20T07:34:44.117Z,4.50
2023-03-20T07:37:11.487Z,4.40
2023-03-20T07:39:38.549Z,4.40
2023-03-20T07:42:05.536Z,4.40
2023-03-20T07:44:32.712Z,4.40
2023-03-20T07:46:59.642Z,4.60
2023-03-20T07:49:26.679Z,4.50
2023-03-20T07:51:57.164Z,4.60
2023-03-20T07:54:24.779Z,4.60
2023-03-20T07:56:51.983Z,4.60
2023-03-20T07:59:19.625Z,4.70
2023-03-20T08:01:46.549Z,4.50
2023-03-20T08:04:14.136Z,4.40
2023-03-20T08:06:41.669Z,4.30
2023-03-20T08:09:08.821Z,4.40
2023-03-20T08:11:35.812Z,4.40
2023-03-20T08:14:02.878Z,4.30
2023-03-20T08:16:30.115Z,4.30
2023-03-20T08:19:01.616Z,4.40
2023-03-20T08:21:30.343Z,4.40
2023-03-20T08:23:57.957Z,4.50
2023-03-20T08:26:25.622Z,4.70
2023-03-20T08:28:52.877Z,4.80
2023-03-20T08:31:20.174Z,5.00
2023-03-20T08:33:47.658Z,5.10
2023-03-20T08:36:16.081Z,5.10
2023-03-20T08:38:43.666Z,5.10
2023-03-20T08:41:11.157Z,5.10
2023-03-20T08:43:38.443Z,5.20
2023-03-20T08:46:06.433Z,5.30
2023-03-20T08:48:33.652Z,5.50
2023-03-20T08:51:01.077Z,5.60
2023-03-20T08:53:28.172Z,5.70
2023-03-20T08:55:55.624Z,5.60
2023-03-20T08:58:23.086Z,5.80
2023-03-20T09:00:50.900Z,6.30
2023-03-20T09:03:21.288Z,6.50
2023-03-20T09:05:51.076Z,6.90
2023-03-20T09:08:18.712Z,7.20
2023-03-20T09:10:48.380Z,7.30
2023-03-20T09:13:26.792Z,7.40
2023-03-20T09:15:56.157Z,7.50
2023-03-20T09:18:24.126Z,7.50
2023-03-20T09:20:51.779Z,7.80
2023-03-20T09:23:19.704Z,7.60
2023-03-20T09:25:47.837Z,7.60
2023-03-20T09:28:15.394Z,7.60
2023-03-20T09:30:43.895Z,7.50
2023-03-20T09:33:11.632Z,7.50
2023-03-20T09:35:38.965Z,7.40
2023-03-20T09:38:06.920Z,7.30
2023-03-20T09:40:37.039Z,7.30
2023-03-20T09:43:29.262Z,7.20
2023-03-20T09:45:59.298Z,7.20
2023-03-20T09:48:43.545Z,7.10
2023-03-20T09:51:19.937Z,7.20
2023-03-20T09:53:54.228Z,7.30
2023-03-20T09:56:25.751Z,7.30
2023-03-20T09:58:56.732Z,7.40
2023-03-20T10:01:47.713Z,7.40
2023-03-20T10:04:14.973Z,7.40
2023-03-20T10:06:42.013Z,7.60
2023-03-20T10:09:22.246Z,7.50
2023-03-20T10:11:55.781Z,7.50
2023-03-20T10:14:36.333Z,7.50
2023-03-20T10:17:03.526Z,7.50
2023-03-20T10:19:32.652Z,7.40
2023-03-20T10:22:02.595Z,7.40
2023-03-20T10:24:36.413Z,7.40
2023-03-20T10:27:29.046Z,7.40
2023-03-20T10:30:26.479Z,7.30
2023-03-20T10:33:04.694Z,7.10
2023-03-20T10:35:43.638Z,7.10
2023-03-20T10:38:39.623Z,7.00
2023-03-20T10:41:14.344Z,7.00
2023-03-20T10:43:43.833Z,7.00
2023-03-20T10:46:22.414Z,6.90
2023-03-20T10:49:03.180Z,6.90
2023-03-20T10:52:05.326Z,6.80
2023-03-20T10:54:41.342Z,6.90
2023-03-20T10:57:23.327Z,6.80
2023-03-20T10:59:57.214Z,6.90
2023-03-20T11:02:30.579Z,6.90
2023-03-20T11:05:21.248Z,6.90
2023-03-20T11:07:51.840Z,6.80
2023-03-20T11:10:19.134Z,6.80
2023-03-20T11:12:50.226Z,6.70
2023-03-20T11:15:27.447Z,6.80
2023-03-20T11:17:57.200Z,6.80
2023-03-20T11:20:26.490Z,6.80
2023-03-20T11:22:59.993Z,6.70
2023-03-20T11:25:36.872Z,6.70
2023-03-20T11:28:49.233Z,6.70
2023-03-20T11:31:20.584Z,6.80
2023-03-20T11:33:54.062Z,6.70
2023-03-20T11:36:30.335Z,6.80
2023-03-20T11:39:16.724Z,6.80
2023-03-20T11:41:47.807Z,6.70
2023-03-20T11:44:27.049Z,6.70
2023-03-20T11:47:28.508Z,6.70
2023-03-20T11:49:59.363Z,6.70
2023-03-20T11:52:32.977Z,6.70
2023-03-20T11:55:03.522Z,6.80
2023-03-20T11:57:40.132Z,6.80
2023-03-20T12:00:23.357Z,6.80
2023-03-20T12:02:50.979Z,7.00
2023-03-20T12:05:39.816Z,7.00
2023-03-20T12:08:16.734Z,7.00
2023-03-20T12:10:51.728Z,7.00
2023-03-20T12:13:26.254Z,7.10
2023-03-20T12:16:08.329Z,7.10
2023-03-20T12:18:38.256Z,7.10
2023-03-20T12:21:09.972Z,7.20
2023-03-20T12:23:39.826Z,7.10
2023-03-20T12:26:33.156Z,7.00
2023-03-20T12:29:11.274Z,7.00
2023-03-20T12:32:11.194Z,7.00
2023-03-20T12:34:47.246Z,7.00
2023-03-20T12:37:18.595Z,7.00
2023-03-20T12:39:56.209Z,7.10
2023-03-20T12:42:46.161Z,7.10
2023-03-20T12:45:15.118Z,7.10
2023-03-20T12:48:13.394Z,7.10
2023-03-20T12:50:43.106Z,7.20
2023-03-20T12:53:10.207Z,7.20
2023-03-20T12:56:16.375Z,7.60
2023-03-20T12:59:07.566Z,8.00
2023-03-20T13:01:46.214Z,8.00
2023-03-20T13:04:32.441Z,8.00
2023-03-20T13:07:02.450Z,8.10
2023-03-20T13:10:04.019Z,8.00
2023-03-20T13:12:57.902Z,8.00
2023-03-20T13:15:59.074Z,7.90
2023-03-20T13:19:11.088Z,7.90
2023-03-20T13:21:56.842Z,7.80
2023-03-20T13:24:41.547Z,7.80
2023-03-20T13:27:20.366Z,7.80
2023-03-20T13:30:03.735Z,7.80
2023-03-20T13:32:49.266Z,7.70
2023-03-20T13:35:25.374Z,7.60
2023-03-20T13:38:00.250Z,7.60
2023-03-20T13:40:30.613Z,7.60
2023-03-20T13:43:06.533Z,7.60
2023-03-20T13:45:42.188Z,7.60
2023-03-20T13:48:33.699Z,7.50
2023-03-20T13:51:26.368Z,7.60
2023-03-20T13:54:07.993Z,7.60
2023-03-20T13:56:53.682Z,7.50
2023-03-20T13:59:47.023Z,7.50
2023-03-20T14:02:32.198Z,7.40
2023-03-20T14:05:22.626Z,7.30
2023-03-20T14:07:56.058Z,7.30
2023-03-20T14:10:23.278Z,7.20
2023-03-20T14:12:56.177Z,7.20
2023-03-20T14:15:27.122Z,7.20
2023-03-20T14:17:54.466Z,7.20
2023-03-20T14:20:38.583Z,7.20
2023-03-20T14:23:07.604Z,7.20
2023-03-20T14:25:42.394Z,7.10
2023-03-20T14:28:12.905Z,7.20
2023-03-20T14:30:49.374Z,7.10
2023-03-20T14:33:24.778Z,7.20
2023-03-20T14:36:19.143Z,7.20
2023-03-20T14:38:59.971Z,7.20
2023-03-20T14:42:03.527Z,7.30
2023-03-20T14:45:07.179Z,7.30
2023-03-20T14:47:46.644Z,7.30
2023-03-20T14:50:30.815Z,7.20
2023-03-20T14:53:18.984Z,7.20
2023-03-20T14:55:57.989Z,7.20
2023-03-20T14:58:50.082Z,7.10
2023-03-20T15:01:22.049Z,7.10
2023-03-20T15:03:57.985Z,7.00
2023-03-20T15:06:27.890Z,7.00
2023-03-20T15:09:02.915Z,6.90
2023-03-20T15:11:30.865Z,7.00
2023-03-20T15:14:00.104Z,7.00
2023-03-20T15:16:30.757Z,7.10
2023-03-20T15:18:58.483Z,7.10
2023-03-20T15:21:38.532Z,7.10
2023-03-20T15:24:05.824Z,7.10
2023-03-20T15:26:35.126Z,7.10
2023-03-20T15:29:10.925Z,7.10
2023-03-20T15:31:40.001Z,7.10
2023-03-20T15:34:30.933Z,7.10
2023-03-20T15:37:00.100Z,7.00
2023-03-20T15:39:29.696Z,6.90
2023-03-20T15:42:01.787Z,6.80
2023-03-20T15:44:36.830Z,6.80
2023-03-20T15:47:17.157Z,6.90
2023-03-20T15:49:58.576Z,6.90
2023-03-20T15:52:39.150Z,6.80
2023-03-20T15:55:16.801Z,6.80
2023-03-20T15:57:47.248Z,6.80
2023-03-20T16:00:16.888Z,6.80
2023-03-20T16:02:48.515Z,6.70
2023-03-20T16:05:17.727Z,6.70
2023-03-20T16:07:45.154Z,6.70
2023-03-20T16:10:29.093Z,6.70
2023-03-20T16:12:56.848Z,6.70
2023-03-20T16:15:27.957Z,6.60
2023-03-20T16:17:58.580Z,6.60
2023-03-20T16:20:30.577Z,6.70
2023-03-20T16:23:03.191Z,6.50
2023-03-20T16:25:30.407Z,6.50
2023-03-20T16:27:58.327Z,6.50
2023-03-20T16:30:30.889Z,6.40
2023-03-20T16:33:06.611Z,6.50
2023-03-20T16:35:45.879Z,6.40
2023-03-20T16:38:32.032Z,6.40
2023-03-20T16:41:17.069Z,6.40
2023-03-20T16:43:49.645Z,6.40
2023-03-20T16:46:24.933Z,6.30
2023-03-20T16:48:55.261Z,6.30
2023-03-20T16:51:31.358Z,6.30
2023-03-20T16:54:03.525Z,6.30
2023-03-20T16:56:34.835Z,6.30
2023-03-20T16:59:09.765Z,6.30
2023-03-20T17:01:41.923Z,6.30
2023-03-20T17:04:47.188Z,6.30
2023-03-20T17:07:19.295Z,6.30
2023-03-20T17:10:06.438Z,6.30
2023-03-20T17:12:33.834Z,6.30
2023-03-20T17:15:01.116Z,6.30
2023-03-20T17:17:28.310Z,6.30
2023-03-20T17:19:55.386Z,6.30
2023-03-20T17:22:25.829Z,6.30
2023-03-20T17:24:53.256Z,6.30
2023-03-20T17:27:21.190Z,6.30
2023-03-20T17:29:51.617Z,6.30
2023-03-20T17:32:25.723Z,6.30
2023-03-20T17:34:52.715Z,6.30
2023-03-20T17:37:29.675Z,6.30
2023-03-20T17:39:57.888Z,6.30
2023-03-20T17:42:31.122Z,6.20
2023-03-20T17:45:03.640Z,6.20
2023-03-20T17:47:31.479Z,6.30
2023-03-20T17:49:58.718Z,6.20
2023-03-20T17:52:28.351Z,6.20
2023-03-20T17:54:55.434Z,6.20
2023-03-20T17:57:33.700Z,6.30
2023-03-20T18:00:01.916Z,6.20
2023-03-20T18:02:28.930Z,6.20
2023-03-20T18:04:56.289Z,6.20
2023-03-20T18:07:23.397Z,6.20
2023-03-20T18:09:50.872Z,6.20
2023-03-20T18:12:19.094Z,6.20
2023-03-20T18:14:47.371Z,6.20
2023-03-20T18:17:15.455Z,6.20
2023-03-20T18:19:43.297Z,6.10
2023-03-20T18:22:11.045Z,6.20
2023-03-20T18:24:43.392Z,6.10
2023-03-20T18:27:12.390Z,6.10
2023-03-20T18:29:39.548Z,6.20
2023-03-20T18:32:06.543Z,6.20
2023-03-20T18:34:33.766Z,6.10
2023-03-20T18:37:00.899Z,6.20
2023-03-20T18:39:27.861Z,6.20
2023-03-20T18:41:55.127Z,6.20
2023-03-20T18:44:22.702Z,6.20
2023-03-20T18:46:49.951Z,6.20
2023-03-20T18:49:18.195Z,6.20
2023-03-20T18:51:45.959Z,6.20
2023-03-20T18:54:13.122Z,6.20
2023-03-20T18:56:40.819Z,6.20
2023-03-20T18:59:12.453Z,6.20
2023-03-20T19:01:39.496Z,6.20
2023-03-20T19:04:08.352Z,6.20
2023-03-20T19:06:35.642Z,6.20
2023-03-20T19:09:05.519Z,6.20
2023-03-20T19:11:32.860Z,6.20
2023-03-20T19:14:00.182Z,6.20
2023-03-20T19:16:33.376Z,6.20
2023-03-20T19:19:02.310Z,6.20
2023-03-20T19:21:31.506Z,6.10
2023-03-20T19:24:05.222Z,6.20
2023-03-20T19:26:33.724Z,6.10
2023-03-20T19:29:02.886Z,6.20
2023-03-20T19:31:30.065Z,6.20
2023-03-20T19:33:57.361Z,6.20
2023-03-20T19:36:34.533Z,6.20
2023-03-20T19:39:04.545Z,6.20
2023-03-20T19:41:32.648Z,6.20
2023-03-20T19:44:01.540Z,6.20
2023-03-20T19:46:39.848Z,6.20
2023-03-20T19:49:20.038Z,6.20
2023-03-20T19:51:48.669Z,6.20
2023-03-20T19:54:15.917Z,6.20
2023-03-20T19:56:43.308Z,6.20
2023-03-20T19:59:10.303Z,6.20
2023-03-20T20:01:37.387Z,6.20
2023-03-20T20:04:04.617Z,6.20
2023-03-20T20:06:33.170Z,6.20
2023-03-20T20:09:01.437Z,6.20
2023-03-20T20:11:28.831Z,6.20
2023-03-20T20:14:14.529Z,6.20
2023-03-20T20:16:43.611Z,6.30
2023-03-20T20:19:11.646Z,6.20
2023-03-20T20:24:26.834Z,6.20
2023-03-20T20:27:14.677Z,6.30
2023-03-20T20:29:43.003Z,6.20
2023-03-20T20:32:10.022Z,6.20
2023-03-20T20:35:30.820Z,6.30
2023-03-20T20:38:14.082Z,6.30
2023-03-20T20:40:15.998Z,6.30
2023-03-20T20:42:43.349Z,6.30
2023-03-20T20:45:14.673Z,6.30
2023-03-20T20:47:44.878Z,6.30
2023-03-20T20:50:18.216Z,6.30
2023-03-20T20:52:45.291Z,6.30
2023-03-20T20:55:23.165Z,6.30
2023-03-20T20:57:55.909Z,6.30
2023-03-20T21:00:37.211Z,6.30
2023-03-20T21:03:08.704Z,6.30
2023-03-20T21:05:37.738Z,6.30
2023-03-20T21:08:04.893Z,6.40
2023-03-20T21:10:32.399Z,6.30
2023-03-20T21:13:00.060Z,6.40
2023-03-20T21:15:28.237Z,6.30
2023-03-20T21:18:01.365Z,6.30
2023-03-20T21:20:32.433Z,6.30
2023-03-20T21:22:59.877Z,6.40
2023-03-20T21:25:47.028Z,6.40
2023-03-20T21:28:14.730Z,6.30
2023-03-20T21:30:54.449Z,6.40
2023-03-20T21:33:29.672Z,6.40
2023-03-20T21:35:56.841Z,6.40
2023-03-20T21:41:11.176Z,6.50
2023-03-20T21:43:39.781Z,6.40
2023-03-20T21:46:42.223Z,6.40
2023-03-20T21:55:06.713Z,6.40
2023-03-20T22:00:59.274Z,6.40
2023-03-20T22:02:55.438Z,6.40
2023-03-20T22:09:10.414Z,6.40
2023-03-20T22:11:45.015Z,6.40
2023-03-20T22:14:40.627Z,6.40
2023-03-20T22:17:30.154Z,6.40
2023-03-20T22:36:49.788Z,6.50
2023-03-20T22:47:12.592Z,6.60
2023-03-20T22:49:39.664Z,6.50
2023-03-20T22:52:24.443Z,6.50
2023-03-20T22:54:54.111Z,6.50
2023-03-20T22:57:26.598Z,6.50
2023-03-20T23:00:01.640Z,6.50
2023-03-20T23:02:28.801Z,6.50
2023-03-20T23:04:57.867Z,6.50
2023-03-20T23:07:25.425Z,6.60
2023-03-20T23:09:52.343Z,6.60
2023-03-20T23:12:19.288Z,6.50
2023-03-20T23:14:46.449Z,6.50
2023-03-20T23:17:13.719Z,6.60
2023-03-20T23:19:47.817Z,6.50
2023-03-20T23:22:17.563Z,6.50
2023-03-20T23:24:44.568Z,6.60
2023-03-20T23:27:11.556Z,6.50
2023-03-20T23:29:38.602Z,6.60
2023-03-20T23:32:06.161Z,6.60
2023-03-20T23:34:33.129Z,6.60
2023-03-20T23:37:00.217Z,6.60
2023-03-20T23:39:27.225Z,6.60
2023-03-20T23:42:09.917Z,6.60
2023-03-20T23:44:44.098Z,6.60
2023-03-20T23:47:20.320Z,6.60
2023-03-20T23:49:48.068Z,6.60
2023-03-20T23:52:15.786Z,6.60
2023-03-20T23:54:43.931Z,6.60
2023-03-20T23:57:13.591Z,6.60
2023-03-20T23:59:40.593Z,6.60
